createdAt,value
2018-03-20T00:01:46.428Z,13.40
2018-03-20T00:06:40.952Z,9.33
2018-03-20T00:11:35.240Z,12.80
2018-03-20T00:16:29.676Z,11.17
2018-03-20T00:21:23.980Z,9.70
2018-03-20T00:26:18.300Z,10.80
2018-03-20T00:31:13.404Z,10.03
2018-03-20T00:36:08.506Z,13.70
2018-03-20T00:41:02.832Z,12.30
2018-03-20T00:45:57.926Z,11.17
2018-03-20T00:50:52.248Z,10.83
2018-03-20T00:55:47.336Z,10.07
2018-03-20T01:00:41.669Z,11.73
2018-03-20T01:05:36.762Z,11.80
2018-03-20T01:10:31.090Z,9.70
2018-03-20T01:15:26.179Z,9.30
2018-03-20T01:20:20.477Z,9.67
2018-03-20T01:25:14.818Z,12.83
2018-03-20T01:30:09.352Z,11.33
2018-03-20T01:35:03.666Z,10.37
2018-03-20T01:39:58.052Z,11.10
2018-03-20T01:44:52.488Z,8.40
2018-03-20T01:49:46.693Z,11.20
2018-03-20T01:54:40.992Z,9.40
2018-03-20T01:59:35.523Z,11.50
2018-03-20T02:04:30.000Z,10.57
2018-03-20T02:09:24.717Z,10.17
2018-03-20T02:14:19.239Z,10.07
2018-03-20T02:19:13.758Z,8.20
2018-03-20T02:24:09.238Z,9.23
2018-03-20T02:29:04.384Z,11.60
2018-03-20T02:33:58.956Z,13.80
2018-03-20T02:38:53.305Z,18.53
2018-03-20T02:43:47.837Z,12.97
2018-03-20T02:48:42.275Z,13.90
2018-03-20T02:53:36.611Z,12.53
2018-03-20T02:58:31.050Z,15.07
2018-03-20T03:03:26.132Z,15.93
2018-03-20T03:08:20.697Z,16.73
2018-03-20T03:13:15.084Z,16.60
2018-03-20T03:18:09.496Z,12.03
2018-03-20T03:23:03.834Z,12.47
2018-03-20T03:27:58.138Z,15.47
2018-03-20T03:32:52.616Z,17.00
2018-03-20T03:37:46.911Z,12.87
2018-03-20T03:42:41.380Z,11.83
2018-03-20T03:47:36.435Z,13.23
2018-03-20T03:52:30.843Z,11.30
2018-03-20T03:57:25.153Z,11.73
2018-03-20T04:02:19.570Z,13.07
2018-03-20T04:07:14.734Z,9.60
2018-03-20T04:12:10.001Z,11.63
2018-03-20T04:17:04.499Z,14.70
2018-03-20T04:21:59.369Z,13.57
2018-03-20T04:26:53.852Z,15.27
2018-03-20T04:31:48.167Z,14.13
2018-03-20T04:36:43.994Z,11.27
2018-03-20T04:41:38.556Z,14.27
2018-03-20T04:46:32.864Z,14.63
2018-03-20T04:51:27.172Z,13.03
2018-03-20T04:56:21.488Z,12.83
2018-03-20T05:01:15.796Z,12.70
2018-03-20T05:06:10.125Z,14.03
2018-03-20T05:11:05.190Z,14.27
2018-03-20T05:15:59.357Z,11.23
2018-03-20T05:20:53.479Z,11.93
2018-03-20T05:25:47.600Z,12.57
2018-03-20T05:30:41.852Z,10.67
2018-03-20T05:35:35.976Z,16.63
2018-03-20T05:40:30.099Z,13.10
2018-03-20T05:45:24.236Z,11.80
2018-03-20T05:50:24.044Z,10.83
2018-03-20T05:55:18.930Z,16.57
2018-03-20T06:00:13.238Z,14.23
2018-03-20T06:05:07.550Z,19.00
2018-03-20T06:10:01.869Z,14.93
2018-03-20T06:14:56.946Z,17.33
2018-03-20T06:19:51.276Z,12.37
2018-03-20T06:24:46.492Z,13.03
2018-03-20T06:29:40.824Z,18.43
2018-03-20T06:34:35.931Z,12.63
2018-03-20T06:39:30.300Z,15.60
2018-03-20T06:44:24.608Z,13.97
2018-03-20T06:49:19.058Z,18.00
2018-03-20T06:54:14.148Z,14.13
2018-03-20T06:59:08.465Z,19.50
2018-03-20T07:04:03.708Z,18.30
2018-03-20T07:08:58.009Z,16.47
2018-03-20T07:13:52.444Z,13.77
2018-03-20T07:18:46.761Z,14.87
2018-03-20T07:23:41.254Z,15.13
2018-03-20T07:28:35.611Z,17.47
2018-03-20T07:33:29.941Z,20.60
2018-03-20T07:38:24.331Z,18.07
2018-03-20T07:43:18.630Z,16.40
2018-03-20T07:48:12.944Z,24.13
2018-03-20T07:53:07.377Z,18.27
2018-03-20T07:58:01.682Z,21.77
2018-03-20T08:02:56.203Z,17.87
2018-03-20T08:07:50.487Z,20.53
2018-03-20T08:12:45.062Z,20.10
2018-03-20T08:17:39.390Z,21.63
2018-03-20T08:22:33.934Z,25.47
2018-03-20T08:27:29.258Z,25.10
2018-03-20T08:32:24.333Z,23.50
2018-03-20T08:37:18.930Z,26.80
2018-03-20T08:42:13.559Z,21.27
2018-03-20T08:47:07.883Z,22.70
2018-03-20T08:52:02.975Z,31.37
2018-03-20T08:56:57.291Z,27.90
2018-03-20T09:01:52.376Z,31.77
2018-03-20T09:06:46.737Z,31.97
2018-03-20T09:11:41.822Z,36.33
2018-03-20T09:16:36.151Z,35.90
2018-03-20T09:21:31.219Z,29.10
2018-03-20T09:26:25.537Z,25.10
2018-03-20T09:31:20.130Z,26.73
2018-03-20T09:36:14.526Z,30.10
2018-03-20T09:41:08.828Z,28.87
2018-03-20T09:46:03.129Z,22.27
2018-03-20T09:50:57.459Z,22.67
2018-03-20T09:55:52.787Z,22.07
2018-03-20T10:00:47.088Z,18.27
2018-03-20T10:05:41.407Z,21.67
2018-03-20T10:10:36.308Z,13.20
2018-03-20T10:15:30.652Z,18.33
2018-03-20T10:20:25.043Z,18.50
2018-03-20T10:25:20.134Z,15.13
2018-03-20T10:30:14.669Z,19.43
2018-03-20T10:35:09.821Z,15.57
2018-03-20T10:40:04.133Z,18.90
2018-03-20T10:44:58.434Z,16.80
2018-03-20T10:49:53.000Z,12.70
2018-03-20T10:54:47.472Z,13.37
2018-03-20T10:59:41.860Z,16.07
2018-03-20T11:04:36.176Z,9.20
2018-03-20T11:09:30.465Z,9.80
2018-03-20T11:14:24.810Z,9.27
2018-03-20T11:19:19.856Z,7.10
2018-03-20T11:24:14.601Z,6.70
2018-03-20T11:29:09.086Z,7.60
2018-03-20T11:34:03.386Z,4.43
2018-03-20T11:38:59.368Z,6.77
2018-03-20T11:43:54.662Z,5.27
2018-03-20T11:48:49.288Z,8.97
2018-03-20T11:53:43.602Z,4.13
2018-03-20T11:58:38.688Z,5.80
2018-03-20T12:03:33.071Z,5.50
2018-03-20T12:24:25.299Z,3.23
2018-03-20T12:29:19.762Z,3.13
2018-03-20T12:34:14.074Z,3.13
2018-03-20T12:39:08.378Z,2.10
2018-03-20T12:44:03.465Z,2.47
2018-03-20T12:48:57.769Z,2.70
2018-03-20T12:53:52.088Z,4.03
2018-03-20T12:58:46.484Z,3.83
2018-03-20T13:03:40.776Z,4.27
2018-03-20T13:08:34.121Z,7.60
2018-03-20T13:13:28.437Z,2.20
2018-03-20T13:18:22.742Z,2.07
2018-03-20T13:23:17.148Z,3.63
2018-03-20T13:28:11.595Z,2.50
2018-03-20T13:33:06.672Z,2.50
2018-03-20T13:38:00.984Z,2.67
2018-03-20T13:42:55.284Z,7.93
2018-03-20T13:47:49.601Z,5.60
2018-03-20T13:52:49.141Z,3.37
2018-03-20T13:57:39.200Z,4.63
2018-03-20T14:02:33.521Z,4.40
2018-03-20T14:07:27.886Z,3.90
2018-03-20T14:12:22.203Z,5.63
2018-03-20T14:17:16.510Z,3.37
2018-03-20T14:22:10.812Z,2.17
2018-03-20T14:27:05.231Z,1.70
2018-03-20T14:31:59.564Z,3.73
2018-03-20T14:36:54.642Z,1.93
2018-03-20T14:41:48.941Z,2.30
2018-03-20T14:46:43.282Z,2.27
2018-03-20T14:51:38.539Z,7.50
2018-03-20T14:56:37.341Z,2.57
2018-03-20T15:01:31.692Z,1.77
2018-03-20T15:06:25.981Z,3.73
2018-03-20T15:11:20.488Z,4.77
2018-03-20T15:16:14.997Z,2.30
2018-03-20T15:21:09.323Z,2.83
2018-03-20T15:26:03.730Z,4.97
2018-03-20T15:30:58.831Z,2.73
2018-03-20T15:35:55.596Z,1.77
2018-03-20T15:40:50.081Z,1.60
2018-03-20T15:45:44.401Z,1.83
2018-03-20T15:50:39.514Z,1.87
2018-03-20T15:55:33.816Z,1.70
2018-03-20T16:00:28.217Z,4.27
2018-03-20T16:05:22.522Z,5.33
2018-03-20T16:10:16.825Z,6.80
2018-03-20T16:15:11.127Z,3.53
2018-03-20T16:20:04.964Z,2.80
2018-03-20T16:24:59.554Z,2.00
2018-03-20T16:29:54.646Z,1.50
2018-03-20T16:34:49.771Z,3.13
2018-03-20T16:39:44.567Z,2.40
2018-03-20T16:44:38.881Z,3.53
2018-03-20T16:49:33.432Z,3.07
2018-03-20T16:54:27.839Z,1.40
2018-03-20T16:59:22.187Z,2.57
2018-03-20T17:04:16.907Z,7.73
2018-03-20T17:09:11.496Z,2.43
2018-03-20T17:14:05.825Z,3.60
2018-03-20T17:19:00.680Z,3.60
2018-03-20T17:23:54.994Z,5.43
2018-03-20T17:28:49.535Z,4.07
2018-03-20T17:33:44.042Z,3.10
2018-03-20T17:38:38.348Z,5.20
2018-03-20T17:43:32.679Z,3.17
2018-03-20T17:48:27.784Z,1.93
2018-03-20T17:53:22.258Z,2.70
2018-03-20T17:58:20.510Z,3.20
2018-03-20T18:03:16.368Z,3.03
2018-03-20T18:08:11.524Z,2.60
2018-03-20T18:13:06.456Z,2.03
2018-03-20T18:18:01.403Z,1.93
2018-03-20T18:22:56.774Z,2.60
2018-03-20T18:27:51.222Z,3.80
2018-03-20T18:32:45.522Z,4.53
2018-03-20T18:37:39.932Z,3.47
2018-03-20T18:42:35.018Z,6.60
2018-03-20T18:47:29.310Z,6.30
2018-03-20T18:52:23.639Z,5.10
2018-03-20T18:57:17.939Z,9.50
2018-03-20T19:02:12.554Z,5.13
2018-03-20T19:07:07.137Z,6.10
2018-03-20T19:12:01.711Z,6.80
2018-03-20T19:16:56.910Z,8.63
2018-03-20T19:21:52.227Z,7.30
2018-03-20T19:26:47.402Z,4.70
2018-03-20T19:31:42.687Z,5.17
2018-03-20T19:36:38.707Z,4.33
2018-03-20T19:41:35.438Z,5.90
2018-03-20T19:46:31.765Z,8.20
2018-03-20T19:51:26.812Z,9.60
2018-03-20T19:56:24.206Z,5.63
2018-03-20T20:01:19.758Z,4.87
2018-03-20T20:06:16.648Z,5.63
2018-03-20T20:11:11.379Z,5.07
2018-03-20T20:16:06.727Z,6.60
2018-03-20T20:21:02.970Z,6.43
2018-03-20T20:25:59.783Z,5.47
2018-03-20T20:30:55.663Z,4.47
2018-03-20T20:35:52.197Z,4.97
2018-03-20T20:40:47.204Z,3.87
2018-03-20T20:45:42.969Z,4.80
2018-03-20T20:50:39.407Z,4.53
2018-03-20T20:55:34.841Z,4.77
2018-03-20T21:00:30.172Z,8.00
2018-03-20T21:05:26.402Z,4.90
2018-03-20T21:10:21.275Z,7.13
2018-03-20T21:15:17.176Z,8.57
2018-03-20T21:20:13.085Z,8.17
2018-03-20T21:25:10.349Z,4.77
2018-03-20T21:30:05.270Z,9.43
2018-03-20T21:34:59.647Z,6.80
2018-03-20T21:39:54.021Z,7.97
2018-03-20T21:44:48.636Z,4.60
2018-03-20T21:49:42.971Z,8.47
2018-03-20T21:54:37.576Z,6.83
2018-03-20T21:59:32.148Z,7.73
2018-03-20T22:04:27.291Z,7.83
2018-03-20T22:09:22.696Z,6.13
2018-03-20T22:14:17.203Z,6.47
2018-03-20T22:19:11.513Z,4.33
2018-03-20T22:24:06.709Z,6.33
2018-03-20T22:29:00.993Z,7.60
2018-03-20T22:33:55.334Z,12.53
2018-03-20T22:38:50.927Z,10.33
2018-03-20T22:43:45.284Z,5.73
2018-03-20T22:48:40.344Z,8.27
2018-03-20T22:53:34.658Z,8.47
2018-03-20T22:58:29.782Z,5.43
2018-03-20T23:03:24.244Z,7.70
2018-03-20T23:08:18.881Z,8.00
2018-03-20T23:13:13.247Z,7.40
2018-03-20T23:18:08.312Z,8.30
2018-03-20T23:23:02.622Z,4.77
2018-03-20T23:27:57.029Z,5.63
2018-03-20T23:32:51.597Z,6.37
2018-03-20T23:37:46.300Z,6.47
2018-03-20T23:42:40.838Z,6.63
2018-03-20T23:47:35.537Z,10.43
2018-03-20T23:52:29.804Z,7.50
2018-03-20T23:57:25.026Z,9.83
